Airfield :
LOGIN :

Register | Disclaimer

   EN    FR    IT 

 










Legend :    VFR   Marginal VFR   IFR   Intensive IFR   Very Intensive IFR
Visi :
Ceiling :
>= 8 km
>= 3000ft
5 to 8 km
1000 to 3000 ft
1500m to 5 km
500 to 1000 ft
800 to 1500m
200 to 500 ft
< 800m
< 200 ft
Symbols :   Thunderstorms  Fog  Heavy snow  Heavy precipitations  Wind > 20 kt
SIGMETs :     Misc.  Thunderstorms  Icing  Turbulence  Mountain Waves  Volcanic Ashes







- Airport Elevation : 53 ft
- IATA code : HAM


EDDH - Hamburg

CURRENT METAR :
  • 201250Z 05010KT 020V080 9999 BKN015 19/14 Q1006 NOSIG

EXPIRED METARs :
  • 201220Z 04008KT 350V070 9999 BKN013 19/14 Q1006 BECMG SCT015
  • 201150Z 05008KT 350V070 9999 BKN012 19/14 Q1006 BECMG SCT015
  • 201120Z 05009KT 350V080 9999 FEW009 BKN012 17/13 Q1006 BECMG SCT015
  • 201050Z 04009KT 340V080 9999 FEW009 BKN012 17/13 Q1006 BECMG SCT015
  • 201020Z 03008KT 9999 FEW007 BKN010 17/13 Q1006 BECMG SCT012

TAF TAF EDDH
Valid from the 20 at 12:00 until the 21 at 18:00 UTC


201100Z 2012/2118 01008KT 9999 BKN014
BECMG 2012/2014 SCT030
PROB30
TEMPO 2019/2023 BKN008
TEMPO 2023/2102 4000 RA BKN006
BECMG 2102/2104 BKN006
TEMPO 2102/2108 2500 -DZ OVC004
BECMG 2108/2110 29007KT
BECMG 2110/2112 BKN012
BECMG 2112/2114 BKN015
BECMG 2116/2118 BKN012
TEMPO 2117/2118 BKN007
No reported NOTAMs for that airfield.
1 SIGMET reported for the Bremen FIR (EDWW) :
 
Frequent thunderstorms and hail
EDWW SIGMET 1 VALID 201211/201410 EDZF
EDWW BREMEN FIR FRQ TSGR FCST APRX 20NM WID LINE BTN N5137 E01012 - N5123 E01028 TOP FL350 MOV SSW 20KT NC=



MET'MAP, your aeronautical weather chart ! - Copyright ORBIFLY December 2007 - Disclaimer

ORBIFLY MET'MAP TEAM :

Programming & Development : Alexandra Zaïnal
Concept & Development : Baudouin d'Aumeries
Co-Development & Prog : Marc-Olivier Méhu
Technical & hardware support : Manuel Goepfert

Contact : metmap@orbifly.com




SOURCES & CREDITS :

   NOAA